This is the latest recevied weather packets stored in our database for station/object DC1NF-6. If no packets are shown the sender has not sent any weather packets the latest 10 day(s).
| Time | Temp. | Humidity | Pressure | Rain* | Wind** | Luminosity | Snow |
|---|---|---|---|---|---|---|---|
| 1777790716 | 16.67° C | 55% | 1015.5 hPa | 0 mm | - | - | - |
| 1777790172 | 17.22° C | 55% | 1015.6 hPa | 0 mm | - | - | - |
| 1777789568 | 15.56° C | 58% | 1015.6 hPa | 0 mm | - | - | - |
| 1777788964 | 15.56° C | 59% | 1015.5 hPa | 0 mm | - | - | - |
| 1777788360 | 15.56° C | 60% | 1015.5 hPa | 0 mm | - | - | - |
| 1777787757 | 15.56° C | 58% | 1015.4 hPa | 0 mm | - | - | - |
| 1777787153 | 15° C | 58% | 1015.3 hPa | 0 mm | - | - | - |
| 1777786549 | 13.33° C | 60% | 1015.3 hPa | 0 mm | - | - | - |
| 1777785946 | 12.22° C | 64% | 1015.2 hPa | 0 mm | - | - | - |
| 1777785342 | 12.22° C | 64% | 1015.2 hPa | 0 mm | - | - | - |
| 1777784738 | 11.67° C | 65% | 1015.3 hPa | 0 mm | - | - | - |
| 1777784134 | 11.67° C | 65% | 1015.2 hPa | 0 mm | - | - | - |
| 1777783531 | 11.11° C | 67% | 1015.2 hPa | 0 mm | - | - | - |
| 1777782927 | 10.56° C | 69% | 1015.1 hPa | 0 mm | - | - | - |
| 1777782323 | 9.44° C | 73% | 1015.1 hPa | 0 mm | - | - | - |
| 1777781719 | 9.44° C | 74% | 1015.1 hPa | 0 mm | - | - | - |
| 1777781115 | 9.44° C | 73% | 1015.2 hPa | 0 mm | - | - | - |
| 1777780572 | 9.44° C | 72% | 1015.2 hPa | 0 mm | - | - | - |
| 1777779968 | 9.44° C | 72% | 1015.3 hPa | 0 mm | - | - | - |
| 1777779363 | 9.44° C | 72% | 1015.3 hPa | 0 mm | - | - | - |
| 1777778760 | 9.44° C | 73% | 1015.3 hPa | 0 mm | - | - | - |
| 1777778156 | 10° C | 73% | 1015.3 hPa | 0 mm | - | - | - |
| 1777777552 | 10° C | 72% | 1015.3 hPa | 0 mm | - | - | - |
| 1777776949 | 9.44° C | 74% | 1015.3 hPa | 0 mm | - | - | - |
| 1777776345 | 8.89° C | 76% | 1015.4 hPa | 0 mm | - | - | - |
* Rain latest hour (hover to see other rain measurements)
** Current wind speed in m/s (hover to see current wind gust speed)